sensor_id;sensor_type;location;lat;lon;timestamp;P1;durP1;ratioP1;P2;durP2;ratioP2
18881;SDS011;9573;50.948;11.600;2022-08-11T00:01:43;16.80;;;5.70;;
18881;SDS011;9573;50.948;11.600;2022-08-11T00:04:13;14.53;;;5.47;;
18881;SDS011;9573;50.948;11.600;2022-08-11T00:06:42;13.07;;;5.77;;
18881;SDS011;9573;50.948;11.600;2022-08-11T00:09:11;10.83;;;5.70;;
18881;SDS011;9573;50.948;11.600;2022-08-11T00:11:44;14.57;;;5.97;;
18881;SDS011;9573;50.948;11.600;2022-08-11T00:14:17;11.90;;;5.50;;
18881;SDS011;9573;50.948;11.600;2022-08-11T00:16:53;14.60;;;5.53;;
18881;SDS011;9573;50.948;11.600;2022-08-11T00:19:24;11.90;;;5.10;;
18881;SDS011;9573;50.948;11.600;2022-08-11T00:21:54;14.67;;;5.50;;
18881;SDS011;9573;50.948;11.600;2022-08-11T00:24:22;15.50;;;5.37;;
18881;SDS011;9573;50.948;11.600;2022-08-11T00:26:51;11.40;;;5.50;;
18881;SDS011;9573;50.948;11.600;2022-08-11T00:29:23;12.73;;;5.30;;
18881;SDS011;9573;50.948;11.600;2022-08-11T00:31:51;9.83;;;4.70;;
18881;SDS011;9573;50.948;11.600;2022-08-11T00:34:21;13.53;;;5.07;;
18881;SDS011;9573;50.948;11.600;2022-08-11T00:36:52;15.20;;;5.23;;
18881;SDS011;9573;50.948;11.600;2022-08-11T00:39:24;11.20;;;5.30;;
18881;SDS011;9573;50.948;11.600;2022-08-11T00:41:57;9.77;;;5.00;;
18881;SDS011;9573;50.948;11.600;2022-08-11T00:44:44;11.10;;;5.10;;
18881;SDS011;9573;50.948;11.600;2022-08-11T00:47:26;11.33;;;5.30;;
18881;SDS011;9573;50.948;11.600;2022-08-11T00:50:28;13.10;;;5.30;;
18881;SDS011;9573;50.948;11.600;2022-08-11T00:53:15;13.90;;;5.40;;
18881;SDS011;9573;50.948;11.600;2022-08-11T00:56:12;13.67;;;5.77;;
18881;SDS011;9573;50.948;11.600;2022-08-11T00:59:25;11.87;;;5.27;;
18881;SDS011;9573;50.948;11.600;2022-08-11T01:02:19;11.70;;;5.20;;
18881;SDS011;9573;50.948;11.600;2022-08-11T01:08:34;17.17;;;6.10;;
18881;SDS011;9573;50.948;11.600;2022-08-11T01:11:50;13.37;;;5.93;;
18881;SDS011;9573;50.948;11.600;2022-08-11T01:14:51;14.10;;;5.70;;
18881;SDS011;9573;50.948;11.600;2022-08-11T01:21:47;17.23;;;6.27;;
18881;SDS011;9573;50.948;11.600;2022-08-11T01:35:21;13.60;;;6.20;;
18881;SDS011;9573;50.948;11.600;2022-08-11T01:41:41;13.90;;;5.90;;
18881;SDS011;9573;50.948;11.600;2022-08-11T01:45:15;18.90;;;6.90;;
18881;SDS011;9573;50.948;11.600;2022-08-11T01:47:58;18.43;;;6.33;;
18881;SDS011;9573;50.948;11.600;2022-08-11T01:50:39;19.13;;;6.93;;
18881;SDS011;9573;50.948;11.600;2022-08-11T01:53:25;16.90;;;7.00;;
18881;SDS011;9573;50.948;11.600;2022-08-11T01:56:11;16.20;;;6.97;;
18881;SDS011;9573;50.948;11.600;2022-08-11T01:58:56;19.43;;;6.70;;
18881;SDS011;9573;50.948;11.600;2022-08-11T02:01:46;16.37;;;6.67;;
18881;SDS011;9573;50.948;11.600;2022-08-11T02:04:37;17.30;;;6.60;;
18881;SDS011;9573;50.948;11.600;2022-08-11T02:07:16;17.43;;;6.57;;
18881;SDS011;9573;50.948;11.600;2022-08-11T02:10:03;15.30;;;6.67;;
18881;SDS011;9573;50.948;11.600;2022-08-11T02:13:07;13.17;;;6.50;;
18881;SDS011;9573;50.948;11.600;2022-08-11T02:15:49;13.13;;;6.70;;
18881;SDS011;9573;50.948;11.600;2022-08-11T02:18:32;13.60;;;6.73;;
18881;SDS011;9573;50.948;11.600;2022-08-11T02:21:18;14.37;;;6.60;;
18881;SDS011;9573;50.948;11.600;2022-08-11T02:24:15;15.07;;;6.93;;
18881;SDS011;9573;50.948;11.600;2022-08-11T02:27:01;20.60;;;7.80;;
18881;SDS011;9573;50.948;11.600;2022-08-11T02:29:43;18.83;;;6.90;;
18881;SDS011;9573;50.948;11.600;2022-08-11T02:32:19;15.37;;;7.00;;
18881;SDS011;9573;50.948;11.600;2022-08-11T02:35:11;16.77;;;7.40;;
18881;SDS011;9573;50.948;11.600;2022-08-11T02:37:49;20.60;;;7.10;;
18881;SDS011;9573;50.948;11.600;2022-08-11T02:40:35;16.70;;;7.37;;
18881;SDS011;9573;50.948;11.600;2022-08-11T02:43:14;15.40;;;7.20;;
18881;SDS011;9573;50.948;11.600;2022-08-11T02:46:15;18.27;;;6.87;;
18881;SDS011;9573;50.948;11.600;2022-08-11T02:48:50;15.33;;;6.80;;
18881;SDS011;9573;50.948;11.600;2022-08-11T02:51:46;17.70;;;6.93;;
18881;SDS011;9573;50.948;11.600;2022-08-11T02:54:29;24.50;;;7.30;;
18881;SDS011;9573;50.948;11.600;2022-08-11T02:57:08;20.10;;;7.67;;
18881;SDS011;9573;50.948;11.600;2022-08-11T02:59:46;22.30;;;7.37;;
18881;SDS011;9573;50.948;11.600;2022-08-11T03:02:25;20.50;;;7.40;;
18881;SDS011;9573;50.948;11.600;2022-08-11T03:05:11;15.70;;;7.17;;
18881;SDS011;9573;50.948;11.600;2022-08-11T03:08:00;18.33;;;7.77;;
18881;SDS011;9573;50.948;11.600;2022-08-11T03:10:40;17.20;;;7.40;;
18881;SDS011;9573;50.948;11.600;2022-08-11T03:13:40;19.07;;;7.83;;
18881;SDS011;9573;50.948;11.600;2022-08-11T03:16:33;18.70;;;7.50;;
18881;SDS011;9573;50.948;11.600;2022-08-11T03:19:14;19.83;;;7.63;;
18881;SDS011;9573;50.948;11.600;2022-08-11T03:22:04;20.40;;;7.63;;
18881;SDS011;9573;50.948;11.600;2022-08-11T03:24:47;15.47;;;7.27;;
18881;SDS011;9573;50.948;11.600;2022-08-11T03:27:26;22.03;;;7.37;;
18881;SDS011;9573;50.948;11.600;2022-08-11T03:30:05;17.77;;;7.33;;
18881;SDS011;9573;50.948;11.600;2022-08-11T03:32:41;17.20;;;7.20;;
18881;SDS011;9573;50.948;11.600;2022-08-11T03:35:33;17.73;;;8.10;;
18881;SDS011;9573;50.948;11.600;2022-08-11T03:38:12;18.57;;;7.80;;
18881;SDS011;9573;50.948;11.600;2022-08-11T03:40:49;22.40;;;7.97;;
18881;SDS011;9573;50.948;11.600;2022-08-11T03:43:52;20.83;;;8.20;;
18881;SDS011;9573;50.948;11.600;2022-08-11T03:46:41;17.70;;;8.13;;
18881;SDS011;9573;50.948;11.600;2022-08-11T03:49:29;21.17;;;8.03;;
18881;SDS011;9573;50.948;11.600;2022-08-11T03:52:07;21.43;;;7.97;;
18881;SDS011;9573;50.948;11.600;2022-08-11T03:54:45;18.03;;;8.07;;
18881;SDS011;9573;50.948;11.600;2022-08-11T04:13:56;21.77;;;8.60;;
18881;SDS011;9573;50.948;11.600;2022-08-11T04:17:14;23.27;;;8.87;;
18881;SDS011;9573;50.948;11.600;2022-08-11T04:20:17;23.93;;;8.70;;
18881;SDS011;9573;50.948;11.600;2022-08-11T04:23:01;18.97;;;9.10;;
18881;SDS011;9573;50.948;11.600;2022-08-11T04:26:14;23.40;;;9.80;;
18881;SDS011;9573;50.948;11.600;2022-08-11T04:29:16;23.80;;;9.97;;
18881;SDS011;9573;50.948;11.600;2022-08-11T04:31:59;19.70;;;9.23;;
18881;SDS011;9573;50.948;11.600;2022-08-11T04:44:36;22.13;;;9.87;;
18881;SDS011;9573;50.948;11.600;2022-08-11T04:51:11;20.23;;;9.43;;
18881;SDS011;9573;50.948;11.600;2022-08-11T04:54:40;29.13;;;10.40;;
18881;SDS011;9573;50.948;11.600;2022-08-11T04:57:46;24.73;;;9.53;;
18881;SDS011;9573;50.948;11.600;2022-08-11T05:00:44;22.70;;;8.90;;
18881;SDS011;9573;50.948;11.600;2022-08-11T05:03:52;23.57;;;9.17;;
18881;SDS011;9573;50.948;11.600;2022-08-11T05:10:18;22.57;;;9.20;;
18881;SDS011;9573;50.948;11.600;2022-08-11T05:12:54;25.40;;;9.33;;
18881;SDS011;9573;50.948;11.600;2022-08-11T05:15:48;19.57;;;7.93;;
18881;SDS011;9573;50.948;11.600;2022-08-11T05:18:36;21.33;;;7.60;;
18881;SDS011;9573;50.948;11.600;2022-08-11T05:21:32;18.10;;;7.20;;
18881;SDS011;9573;50.948;11.600;2022-08-11T05:24:21;16.43;;;6.47;;
18881;SDS011;9573;50.948;11.600;2022-08-11T05:27:08;15.87;;;6.73;;
18881;SDS011;9573;50.948;11.600;2022-08-11T05:29:56;16.73;;;7.10;;
18881;SDS011;9573;50.948;11.600;2022-08-11T05:32:46;20.00;;;7.10;;
18881;SDS011;9573;50.948;11.600;2022-08-11T05:35:42;14.70;;;5.93;;
18881;SDS011;9573;50.948;11.600;2022-08-11T05:38:17;19.87;;;6.30;;
18881;SDS011;9573;50.948;11.600;2022-08-11T05:41:08;17.53;;;6.13;;
18881;SDS011;9573;50.948;11.600;2022-08-11T05:43:57;18.93;;;6.63;;
18881;SDS011;9573;50.948;11.600;2022-08-11T05:46:43;16.83;;;6.57;;
18881;SDS011;9573;50.948;11.600;2022-08-11T05:49:29;20.53;;;6.60;;
18881;SDS011;9573;50.948;11.600;2022-08-11T05:52:15;17.67;;;6.60;;
18881;SDS011;9573;50.948;11.600;2022-08-11T05:55:05;14.57;;;6.57;;
18881;SDS011;9573;50.948;11.600;2022-08-11T05:57:55;18.63;;;6.80;;
18881;SDS011;9573;50.948;11.600;2022-08-11T06:00:25;16.50;;;6.77;;
18881;SDS011;9573;50.948;11.600;2022-08-11T06:02:54;18.10;;;6.22;;
18881;SDS011;9573;50.948;11.600;2022-08-11T06:05:29;27.88;;;11.77;;
18881;SDS011;9573;50.948;11.600;2022-08-11T06:07:59;23.73;;;6.85;;
18881;SDS011;9573;50.948;11.600;2022-08-11T06:10:28;20.77;;;6.82;;
18881;SDS011;9573;50.948;11.600;2022-08-11T06:12:59;18.67;;;6.93;;
18881;SDS011;9573;50.948;11.600;2022-08-11T06:15:31;21.13;;;6.68;;
18881;SDS011;9573;50.948;11.600;2022-08-11T06:18:08;12.10;;;5.85;;
18881;SDS011;9573;50.948;11.600;2022-08-11T06:20:42;14.10;;;6.03;;
18881;SDS011;9573;50.948;11.600;2022-08-11T06:23:12;15.20;;;5.78;;
18881;SDS011;9573;50.948;11.600;2022-08-11T06:25:43;16.35;;;5.80;;
18881;SDS011;9573;50.948;11.600;2022-08-11T06:28:13;16.45;;;6.35;;
18881;SDS011;9573;50.948;11.600;2022-08-11T06:30:43;13.73;;;5.95;;
18881;SDS011;9573;50.948;11.600;2022-08-11T06:33:13;21.70;;;5.95;;
18881;SDS011;9573;50.948;11.600;2022-08-11T06:35:47;15.82;;;5.70;;
18881;SDS011;9573;50.948;11.600;2022-08-11T06:38:28;12.15;;;5.55;;
18881;SDS011;9573;50.948;11.600;2022-08-11T06:41:15;15.73;;;5.80;;
18881;SDS011;9573;50.948;11.600;2022-08-11T06:43:58;18.60;;;5.50;;
18881;SDS011;9573;50.948;11.600;2022-08-11T06:46:35;13.82;;;5.30;;
18881;SDS011;9573;50.948;11.600;2022-08-11T06:49:06;13.05;;;5.40;;
18881;SDS011;9573;50.948;11.600;2022-08-11T06:51:58;12.95;;;5.68;;
18881;SDS011;9573;50.948;11.600;2022-08-11T06:54:26;11.20;;;5.55;;
18881;SDS011;9573;50.948;11.600;2022-08-11T06:56:56;15.57;;;5.57;;
18881;SDS011;9573;50.948;11.600;2022-08-11T06:59:43;15.00;;;5.43;;
18881;SDS011;9573;50.948;11.600;2022-08-11T07:02:29;18.55;;;5.80;;
18881;SDS011;9573;50.948;11.600;2022-08-11T07:05:00;15.27;;;4.93;;
18881;SDS011;9573;50.948;11.600;2022-08-11T07:11:20;18.98;;;6.22;;
18881;SDS011;9573;50.948;11.600;2022-08-11T07:14:52;16.88;;;5.00;;
18881;SDS011;9573;50.948;11.600;2022-08-11T07:17:40;15.07;;;5.38;;
18881;SDS011;9573;50.948;11.600;2022-08-11T07:20:13;17.02;;;5.82;;
18881;SDS011;9573;50.948;11.600;2022-08-11T07:23:00;18.25;;;5.05;;
18881;SDS011;9573;50.948;11.600;2022-08-11T07:25:49;10.73;;;4.90;;
18881;SDS011;9573;50.948;11.600;2022-08-11T07:28:36;19.45;;;5.88;;
18881;SDS011;9573;50.948;11.600;2022-08-11T07:31:25;14.57;;;5.30;;
18881;SDS011;9573;50.948;11.600;2022-08-11T07:34:01;13.48;;;5.22;;
18881;SDS011;9573;50.948;11.600;2022-08-11T07:36:39;18.98;;;5.40;;
18881;SDS011;9573;50.948;11.600;2022-08-11T07:39:14;19.17;;;5.75;;
18881;SDS011;9573;50.948;11.600;2022-08-11T07:41:46;14.13;;;5.50;;
18881;SDS011;9573;50.948;11.600;2022-08-11T07:44:21;18.92;;;5.88;;
18881;SDS011;9573;50.948;11.600;2022-08-11T07:46:51;17.13;;;5.63;;
18881;SDS011;9573;50.948;11.600;2022-08-11T07:49:38;15.02;;;5.47;;
18881;SDS011;9573;50.948;11.600;2022-08-11T07:52:24;18.75;;;5.80;;
18881;SDS011;9573;50.948;11.600;2022-08-11T07:54:57;18.88;;;5.68;;
18881;SDS011;9573;50.948;11.600;2022-08-11T07:57:29;15.70;;;5.55;;
18881;SDS011;9573;50.948;11.600;2022-08-11T08:00:15;17.60;;;5.90;;
18881;SDS011;9573;50.948;11.600;2022-08-11T08:03:01;15.65;;;5.40;;
18881;SDS011;9573;50.948;11.600;2022-08-11T08:05:49;16.38;;;5.07;;
18881;SDS011;9573;50.948;11.600;2022-08-11T08:08:34;17.42;;;5.15;;
18881;SDS011;9573;50.948;11.600;2022-08-11T08:11:20;12.95;;;4.75;;
18881;SDS011;9573;50.948;11.600;2022-08-11T08:14:06;10.10;;;4.50;;
18881;SDS011;9573;50.948;11.600;2022-08-11T08:16:52;14.25;;;4.40;;
18881;SDS011;9573;50.948;11.600;2022-08-11T08:19:40;11.15;;;4.45;;
18881;SDS011;9573;50.948;11.600;2022-08-11T08:22:09;9.93;;;3.70;;
18881;SDS011;9573;50.948;11.600;2022-08-11T08:24:37;10.63;;;4.10;;
18881;SDS011;9573;50.948;11.600;2022-08-11T08:27:05;10.15;;;4.22;;
18881;SDS011;9573;50.948;11.600;2022-08-11T08:29:34;12.40;;;4.13;;
18881;SDS011;9573;50.948;11.600;2022-08-11T08:32:36;9.70;;;3.75;;
18881;SDS011;9573;50.948;11.600;2022-08-11T08:35:07;15.15;;;4.03;;
18881;SDS011;9573;50.948;11.600;2022-08-11T08:37:36;12.43;;;4.07;;
18881;SDS011;9573;50.948;11.600;2022-08-11T08:40:05;12.60;;;4.18;;
18881;SDS011;9573;50.948;11.600;2022-08-11T08:42:37;12.07;;;4.35;;
18881;SDS011;9573;50.948;11.600;2022-08-11T08:45:08;14.90;;;3.90;;
18881;SDS011;9573;50.948;11.600;2022-08-11T08:47:40;11.20;;;4.38;;
18881;SDS011;9573;50.948;11.600;2022-08-11T08:50:13;12.35;;;3.67;;
18881;SDS011;9573;50.948;11.600;2022-08-11T08:52:46;10.40;;;4.25;;
18881;SDS011;9573;50.948;11.600;2022-08-11T08:55:20;9.65;;;3.53;;
18881;SDS011;9573;50.948;11.600;2022-08-11T08:57:49;9.82;;;3.85;;
18881;SDS011;9573;50.948;11.600;2022-08-11T09:00:20;9.98;;;3.67;;
18881;SDS011;9573;50.948;11.600;2022-08-11T09:02:48;16.05;;;3.70;;
18881;SDS011;9573;50.948;11.600;2022-08-11T09:05:18;12.00;;;3.50;;
18881;SDS011;9573;50.948;11.600;2022-08-11T09:07:48;7.75;;;3.67;;
18881;SDS011;9573;50.948;11.600;2022-08-11T09:10:22;7.88;;;3.47;;
18881;SDS011;9573;50.948;11.600;2022-08-11T09:12:50;5.80;;;3.05;;
18881;SDS011;9573;50.948;11.600;2022-08-11T09:15:18;5.82;;;3.05;;
18881;SDS011;9573;50.948;11.600;2022-08-11T09:17:48;9.43;;;3.33;;
18881;SDS011;9573;50.948;11.600;2022-08-11T09:20:32;4.63;;;3.10;;
18881;SDS011;9573;50.948;11.600;2022-08-11T09:23:03;6.07;;;3.17;;
18881;SDS011;9573;50.948;11.600;2022-08-11T09:25:52;5.45;;;2.90;;
18881;SDS011;9573;50.948;11.600;2022-08-11T09:28:40;10.57;;;3.30;;
18881;SDS011;9573;50.948;11.600;2022-08-11T09:31:10;5.68;;;3.10;;
18881;SDS011;9573;50.948;11.600;2022-08-11T09:33:38;8.85;;;3.10;;
18881;SDS011;9573;50.948;11.600;2022-08-11T09:36:08;6.40;;;3.28;;
18881;SDS011;9573;50.948;11.600;2022-08-11T09:38:55;10.20;;;3.20;;
18881;SDS011;9573;50.948;11.600;2022-08-11T09:41:46;8.60;;;3.17;;
18881;SDS011;9573;50.948;11.600;2022-08-11T09:44:13;10.18;;;3.45;;
18881;SDS011;9573;50.948;11.600;2022-08-11T09:46:59;12.55;;;3.40;;
18881;SDS011;9573;50.948;11.600;2022-08-11T09:49:29;7.38;;;3.17;;
18881;SDS011;9573;50.948;11.600;2022-08-11T09:51:59;9.73;;;3.05;;
18881;SDS011;9573;50.948;11.600;2022-08-11T09:54:26;8.27;;;3.15;;
18881;SDS011;9573;50.948;11.600;2022-08-11T09:56:54;9.43;;;3.08;;
18881;SDS011;9573;50.948;11.600;2022-08-11T09:59:38;11.32;;;2.90;;
18881;SDS011;9573;50.948;11.600;2022-08-11T10:02:06;8.93;;;2.80;;
18881;SDS011;9573;50.948;11.600;2022-08-11T10:04:37;8.85;;;3.13;;
18881;SDS011;9573;50.948;11.600;2022-08-11T10:07:10;10.18;;;3.03;;
18881;SDS011;9573;50.948;11.600;2022-08-11T10:09:40;8.38;;;3.17;;
18881;SDS011;9573;50.948;11.600;2022-08-11T10:12:16;10.23;;;3.00;;
18881;SDS011;9573;50.948;11.600;2022-08-11T10:14:51;6.97;;;2.83;;
18881;SDS011;9573;50.948;11.600;2022-08-11T10:17:38;9.45;;;2.92;;
18881;SDS011;9573;50.948;11.600;2022-08-11T10:20:30;16.10;;;3.20;;
18881;SDS011;9573;50.948;11.600;2022-08-11T10:23:03;7.03;;;2.78;;
18881;SDS011;9573;50.948;11.600;2022-08-11T10:25:51;8.70;;;2.88;;
18881;SDS011;9573;50.948;11.600;2022-08-11T10:28:36;4.22;;;2.80;;
18881;SDS011;9573;50.948;11.600;2022-08-11T10:31:03;8.70;;;2.97;;
18881;SDS011;9573;50.948;11.600;2022-08-11T10:33:48;7.28;;;2.90;;
18881;SDS011;9573;50.948;11.600;2022-08-11T10:36:25;10.57;;;3.05;;
18881;SDS011;9573;50.948;11.600;2022-08-11T10:38:55;10.50;;;2.80;;
18881;SDS011;9573;50.948;11.600;2022-08-11T10:41:25;6.93;;;2.78;;
18881;SDS011;9573;50.948;11.600;2022-08-11T10:44:11;8.07;;;2.60;;
18881;SDS011;9573;50.948;11.600;2022-08-11T10:46:39;6.38;;;2.80;;
18881;SDS011;9573;50.948;11.600;2022-08-11T10:49:24;9.93;;;3.00;;
18881;SDS011;9573;50.948;11.600;2022-08-11T10:51:54;7.65;;;2.85;;
18881;SDS011;9573;50.948;11.600;2022-08-11T10:54:41;10.27;;;3.00;;
18881;SDS011;9573;50.948;11.600;2022-08-11T10:57:27;8.25;;;3.05;;
18881;SDS011;9573;50.948;11.600;2022-08-11T11:00:12;11.88;;;2.95;;
18881;SDS011;9573;50.948;11.600;2022-08-11T11:02:41;8.65;;;2.80;;
18881;SDS011;9573;50.948;11.600;2022-08-11T11:05:11;9.23;;;3.00;;
18881;SDS011;9573;50.948;11.600;2022-08-11T11:07:46;10.40;;;2.75;;
18881;SDS011;9573;50.948;11.600;2022-08-11T11:10:22;11.63;;;2.95;;
18881;SDS011;9573;50.948;11.600;2022-08-11T11:12:50;10.93;;;3.10;;
18881;SDS011;9573;50.948;11.600;2022-08-11T11:15:39;7.90;;;2.70;;
18881;SDS011;9573;50.948;11.600;2022-08-11T11:18:30;10.27;;;2.55;;
18881;SDS011;9573;50.948;11.600;2022-08-11T11:21:02;6.03;;;2.70;;
18881;SDS011;9573;50.948;11.600;2022-08-11T11:23:33;8.45;;;2.60;;
18881;SDS011;9573;50.948;11.600;2022-08-11T11:26:20;11.88;;;2.70;;
18881;SDS011;9573;50.948;11.600;2022-08-11T11:29:10;13.32;;;2.90;;
18881;SDS011;9573;50.948;11.600;2022-08-11T11:32:05;9.23;;;2.80;;
18881;SDS011;9573;50.948;11.600;2022-08-11T11:35:04;8.20;;;3.10;;
18881;SDS011;9573;50.948;11.600;2022-08-11T11:37:52;5.13;;;2.60;;
18881;SDS011;9573;50.948;11.600;2022-08-11T11:40:21;10.70;;;2.92;;
18881;SDS011;9573;50.948;11.600;2022-08-11T11:42:51;11.27;;;2.70;;
18881;SDS011;9573;50.948;11.600;2022-08-11T11:45:22;7.10;;;2.75;;
18881;SDS011;9573;50.948;11.600;2022-08-11T11:47:51;6.28;;;2.70;;
18881;SDS011;9573;50.948;11.600;2022-08-11T11:50:21;14.20;;;3.00;;
18881;SDS011;9573;50.948;11.600;2022-08-11T11:52:51;7.97;;;2.78;;
18881;SDS011;9573;50.948;11.600;2022-08-11T11:55:19;6.40;;;2.65;;
18881;SDS011;9573;50.948;11.600;2022-08-11T11:57:51;8.98;;;3.00;;
18881;SDS011;9573;50.948;11.600;2022-08-11T12:00:37;11.30;;;2.88;;
18881;SDS011;9573;50.948;11.600;2022-08-11T12:03:23;10.50;;;3.00;;
18881;SDS011;9573;50.948;11.600;2022-08-11T12:05:51;7.68;;;2.95;;
18881;SDS011;9573;50.948;11.600;2022-08-11T12:08:19;7.50;;;3.33;;
18881;SDS011;9573;50.948;11.600;2022-08-11T12:10:48;9.57;;;3.00;;
18881;SDS011;9573;50.948;11.600;2022-08-11T12:13:41;10.90;;;3.00;;
18881;SDS011;9573;50.948;11.600;2022-08-11T12:16:11;9.63;;;3.15;;
18881;SDS011;9573;50.948;11.600;2022-08-11T12:18:40;9.77;;;2.90;;
18881;SDS011;9573;50.948;11.600;2022-08-11T12:21:11;7.53;;;2.70;;
18881;SDS011;9573;50.948;11.600;2022-08-11T12:23:42;6.80;;;2.70;;
18881;SDS011;9573;50.948;11.600;2022-08-11T12:26:29;10.38;;;2.85;;
18881;SDS011;9573;50.948;11.600;2022-08-11T12:29:20;13.15;;;3.20;;
18881;SDS011;9573;50.948;11.600;2022-08-11T12:31:51;7.68;;;3.08;;
18881;SDS011;9573;50.948;11.600;2022-08-11T12:34:20;9.95;;;2.70;;
18881;SDS011;9573;50.948;11.600;2022-08-11T12:36:49;10.55;;;2.90;;
18881;SDS011;9573;50.948;11.600;2022-08-11T12:39:22;11.40;;;2.97;;
18881;SDS011;9573;50.948;11.600;2022-08-11T12:42:12;10.55;;;2.60;;
18881;SDS011;9573;50.948;11.600;2022-08-11T12:45:02;9.18;;;2.80;;
18881;SDS011;9573;50.948;11.600;2022-08-11T12:47:50;6.28;;;2.75;;
18881;SDS011;9573;50.948;11.600;2022-08-11T12:50:36;12.52;;;2.92;;
18881;SDS011;9573;50.948;11.600;2022-08-11T12:53:27;8.45;;;2.80;;
18881;SDS011;9573;50.948;11.600;2022-08-11T12:56:02;7.80;;;3.25;;
18881;SDS011;9573;50.948;11.600;2022-08-11T12:58:48;11.85;;;3.28;;
18881;SDS011;9573;50.948;11.600;2022-08-11T13:01:19;11.05;;;2.97;;
18881;SDS011;9573;50.948;11.600;2022-08-11T13:04:04;5.38;;;3.03;;
18881;SDS011;9573;50.948;11.600;2022-08-11T13:06:49;8.88;;;3.10;;
18881;SDS011;9573;50.948;11.600;2022-08-11T13:09:17;12.43;;;3.47;;
18881;SDS011;9573;50.948;11.600;2022-08-11T13:11:46;9.75;;;3.00;;
18881;SDS011;9573;50.948;11.600;2022-08-11T13:14:31;8.15;;;3.03;;
18881;SDS011;9573;50.948;11.600;2022-08-11T13:17:01;7.40;;;3.05;;
18881;SDS011;9573;50.948;11.600;2022-08-11T13:19:48;10.85;;;3.15;;
18881;SDS011;9573;50.948;11.600;2022-08-11T13:22:17;6.22;;;3.13;;
18881;SDS011;9573;50.948;11.600;2022-08-11T13:24:48;10.75;;;3.10;;
18881;SDS011;9573;50.948;11.600;2022-08-11T13:27:19;6.90;;;3.08;;
18881;SDS011;9573;50.948;11.600;2022-08-11T13:29:48;9.15;;;3.00;;
18881;SDS011;9573;50.948;11.600;2022-08-11T13:32:37;11.63;;;3.30;;
18881;SDS011;9573;50.948;11.600;2022-08-11T13:35:06;10.65;;;3.30;;
18881;SDS011;9573;50.948;11.600;2022-08-11T13:37:35;12.85;;;2.83;;
18881;SDS011;9573;50.948;11.600;2022-08-11T13:40:02;15.15;;;3.95;;
18881;SDS011;9573;50.948;11.600;2022-08-11T13:42:31;14.27;;;3.13;;
18881;SDS011;9573;50.948;11.600;2022-08-11T13:44:59;13.00;;;3.15;;
18881;SDS011;9573;50.948;11.600;2022-08-11T13:47:26;8.93;;;2.92;;
18881;SDS011;9573;50.948;11.600;2022-08-11T13:49:56;10.38;;;3.28;;
18881;SDS011;9573;50.948;11.600;2022-08-11T13:52:23;7.40;;;2.88;;
18881;SDS011;9573;50.948;11.600;2022-08-11T13:54:53;10.15;;;3.17;;
18881;SDS011;9573;50.948;11.600;2022-08-11T13:57:22;7.28;;;3.10;;
18881;SDS011;9573;50.948;11.600;2022-08-11T13:59:51;6.75;;;3.00;;
18881;SDS011;9573;50.948;11.600;2022-08-11T14:02:34;13.70;;;3.00;;
18881;SDS011;9573;50.948;11.600;2022-08-11T14:05:06;8.82;;;3.10;;
18881;SDS011;9573;50.948;11.600;2022-08-11T14:07:40;7.85;;;2.70;;
18881;SDS011;9573;50.948;11.600;2022-08-11T14:10:13;8.20;;;3.20;;
18881;SDS011;9573;50.948;11.600;2022-08-11T14:12:46;7.72;;;3.22;;
18881;SDS011;9573;50.948;11.600;2022-08-11T14:15:38;13.57;;;3.10;;
18881;SDS011;9573;50.948;11.600;2022-08-11T14:18:17;10.02;;;2.90;;
18881;SDS011;9573;50.948;11.600;2022-08-11T14:20:47;7.63;;;2.90;;
18881;SDS011;9573;50.948;11.600;2022-08-11T14:23:37;9.10;;;3.00;;
18881;SDS011;9573;50.948;11.600;2022-08-11T14:26:08;13.30;;;3.20;;
18881;SDS011;9573;50.948;11.600;2022-08-11T14:28:56;9.27;;;2.90;;
18881;SDS011;9573;50.948;11.600;2022-08-11T14:31:28;7.63;;;3.00;;
18881;SDS011;9573;50.948;11.600;2022-08-11T14:33:58;8.90;;;2.90;;
18881;SDS011;9573;50.948;11.600;2022-08-11T14:36:32;12.98;;;3.22;;
18881;SDS011;9573;50.948;11.600;2022-08-11T14:39:03;11.40;;;3.00;;
18881;SDS011;9573;50.948;11.600;2022-08-11T14:41:36;8.55;;;2.75;;
18881;SDS011;9573;50.948;11.600;2022-08-11T14:44:22;7.55;;;3.22;;
18881;SDS011;9573;50.948;11.600;2022-08-11T14:47:07;12.15;;;3.53;;
18881;SDS011;9573;50.948;11.600;2022-08-11T14:49:38;9.75;;;3.05;;
18881;SDS011;9573;50.948;11.600;2022-08-11T14:52:10;10.65;;;3.10;;
18881;SDS011;9573;50.948;11.600;2022-08-11T14:54:40;11.15;;;2.80;;
18881;SDS011;9573;50.948;11.600;2022-08-11T14:57:28;10.70;;;3.17;;
18881;SDS011;9573;50.948;11.600;2022-08-11T14:59:59;7.30;;;2.90;;
18881;SDS011;9573;50.948;11.600;2022-08-11T15:02:30;8.10;;;3.03;;
18881;SDS011;9573;50.948;11.600;2022-08-11T15:05:19;7.05;;;3.10;;
18881;SDS011;9573;50.948;11.600;2022-08-11T15:07:49;18.30;;;3.28;;
18881;SDS011;9573;50.948;11.600;2022-08-11T15:10:17;12.30;;;2.78;;
18881;SDS011;9573;50.948;11.600;2022-08-11T15:12:45;7.32;;;2.90;;
18881;SDS011;9573;50.948;11.600;2022-08-11T15:15:14;14.02;;;3.13;;
18881;SDS011;9573;50.948;11.600;2022-08-11T15:18:01;12.60;;;3.33;;
18881;SDS011;9573;50.948;11.600;2022-08-11T15:20:31;10.13;;;3.53;;
18881;SDS011;9573;50.948;11.600;2022-08-11T15:23:18;15.77;;;3.20;;
18881;SDS011;9573;50.948;11.600;2022-08-11T15:26:04;11.73;;;3.38;;
18881;SDS011;9573;50.948;11.600;2022-08-11T15:28:38;7.53;;;2.95;;
18881;SDS011;9573;50.948;11.600;2022-08-11T15:31:29;8.90;;;3.20;;
18881;SDS011;9573;50.948;11.600;2022-08-11T15:34:16;9.00;;;2.97;;
18881;SDS011;9573;50.948;11.600;2022-08-11T15:37:06;10.27;;;3.13;;
18881;SDS011;9573;50.948;11.600;2022-08-11T15:39:55;13.32;;;3.00;;
18881;SDS011;9573;50.948;11.600;2022-08-11T15:42:56;6.35;;;2.80;;
18881;SDS011;9573;50.948;11.600;2022-08-11T15:45:45;11.43;;;2.92;;
18881;SDS011;9573;50.948;11.600;2022-08-11T15:48:19;12.68;;;3.10;;
18881;SDS011;9573;50.948;11.600;2022-08-11T15:50:56;11.02;;;3.22;;
18881;SDS011;9573;50.948;11.600;2022-08-11T15:53:38;7.38;;;3.13;;
18881;SDS011;9573;50.948;11.600;2022-08-11T15:56:09;8.95;;;3.10;;
18881;SDS011;9573;50.948;11.600;2022-08-11T15:58:39;11.60;;;3.08;;
18881;SDS011;9573;50.948;11.600;2022-08-11T16:01:29;10.25;;;3.13;;
18881;SDS011;9573;50.948;11.600;2022-08-11T16:04:16;9.15;;;3.00;;
18881;SDS011;9573;50.948;11.600;2022-08-11T16:06:50;8.70;;;3.05;;
18881;SDS011;9573;50.948;11.600;2022-08-11T16:09:25;10.02;;;2.90;;
18881;SDS011;9573;50.948;11.600;2022-08-11T16:12:00;10.63;;;2.97;;
18881;SDS011;9573;50.948;11.600;2022-08-11T16:14:30;10.18;;;3.30;;
18881;SDS011;9573;50.948;11.600;2022-08-11T16:17:19;8.50;;;3.15;;
18881;SDS011;9573;50.948;11.600;2022-08-11T16:19:50;12.02;;;3.50;;
18881;SDS011;9573;50.948;11.600;2022-08-11T16:22:20;11.68;;;3.20;;
18881;SDS011;9573;50.948;11.600;2022-08-11T16:24:58;9.20;;;3.05;;
18881;SDS011;9573;50.948;11.600;2022-08-11T16:27:31;9.70;;;3.13;;
18881;SDS011;9573;50.948;11.600;2022-08-11T16:30:04;10.13;;;3.03;;
18881;SDS011;9573;50.948;11.600;2022-08-11T16:32:34;7.72;;;3.40;;
18881;SDS011;9573;50.948;11.600;2022-08-11T16:35:08;13.35;;;3.38;;
18881;SDS011;9573;50.948;11.600;2022-08-11T16:37:57;10.75;;;3.45;;
18881;SDS011;9573;50.948;11.600;2022-08-11T16:40:44;15.05;;;3.50;;
18881;SDS011;9573;50.948;11.600;2022-08-11T16:43:17;11.60;;;3.50;;
18881;SDS011;9573;50.948;11.600;2022-08-11T16:46:06;10.32;;;3.72;;
18881;SDS011;9573;50.948;11.600;2022-08-11T16:48:51;5.97;;;3.10;;
18881;SDS011;9573;50.948;11.600;2022-08-11T16:51:20;9.68;;;3.50;;
18881;SDS011;9573;50.948;11.600;2022-08-11T16:53:48;8.45;;;3.22;;